Home   Weather   Italy   Venice   Past weeks
Flag for Italy

Past Weather in Venice, Italy — Yesterday and Last 2 Weeks

Currently: 52 °F. Passing clouds. (Weather station: Venice / Tessera, Italy). See more current weather

Past Weather in Venice — Graph

°F

Venice Temperature Yesterday

Maximum temperature yesterday: 50 °F (at 3:20 pm)
Minimum temperature yesterday: 32 °F (at 5:50 am)
Average temperature yesterday: 41 °F

High & Low Weather Summary for the Past Weeks

 TemperatureHumidityPressure
High72 °F (Feb 24, 1:50 pm)100% (Feb 21, 8:20 pm)30.63 "Hg (Feb 21, 8:20 pm)
Low32 °F (Mar 7, 5:50 am)25% (Feb 24, 1:50 pm)30.01 "Hg (Mar 5, 3:20 am)
Average47 °F75%30.37 "Hg
* Reported Feb 21 1:20 pm — Mar 8 1:50 pm, Venice. Weather by CustomWeather, © 2021

Note: Actual official high and low records may vary slightly from our data, if they occured in-between our weather recording intervals... More about our weather records

Venice Weather History for the Previous 24 Hours

Scroll right to see more
 ConditionsComfort  
Time TempWeatherWind HumidityBarometerVisibility
1:50 pm
Mon, Mar 8
50 °FPassing clouds.6 mph58%30.04 "HgN/A
1:20 pm52 °FPassing clouds.6 mph58%30.07 "HgN/A
12:50 pm50 °FPassing clouds.6 mph58%30.07 "HgN/A
12:20 pm50 °FPassing clouds.6 mph58%30.07 "HgN/A
11:50 am48 °FPassing clouds.3 mph62%30.07 "HgN/A
11:20 am48 °FSunny.2 mph62%30.07 "Hg10 mi
10:50 am50 °FPassing clouds.3 mph58%30.07 "HgN/A
10:20 am46 °FPassing clouds.3 mph66%30.07 "HgN/A
9:50 am45 °FPassing clouds.3 mph71%30.09 "HgN/A
9:20 am41 °FSunny.5 mph76%30.09 "Hg10 mi
8:50 am37 °FSunny.5 mph81%30.09 "Hg10 mi
8:20 am36 °FClear.6 mph87%30.09 "Hg5 mi
7:50 am34 °FClear.6 mph93%30.07 "Hg4 mi
7:20 am32 °FClear.8 mph93%30.07 "Hg4 mi
6:50 am32 °FClear.3 mph93%30.07 "Hg4 mi
6:20 am32 °FClear.3 mph93%30.07 "Hg5 mi
5:50 am34 °FClear.5 mph93%30.07 "Hg5 mi
5:20 am34 °FClear.3 mph87%30.07 "Hg10 mi
4:50 am36 °FClear.2 mph93%30.07 "Hg10 mi
4:20 am36 °FClear.3 mph93%30.07 "Hg10 mi
3:50 am34 °FClear.5 mph93%30.07 "Hg10 mi
3:20 am34 °FClear.6 mph93%30.07 "Hg10 mi
2:50 am34 °FClear.5 mph93%30.09 "Hg10 mi
2:20 am36 °FClear.2 mph87%30.09 "Hg10 mi
1:50 am37 °FClear.6 mph81%30.09 "Hg10 mi
1:20 am37 °FClear.5 mph81%30.09 "Hg10 mi
12:50 am37 °FClear.5 mph87%30.12 "Hg10 mi
12:20 am37 °FClear.2 mph81%30.12 "Hg10 mi
11:50 pm
Sun, Mar 7
39 °FClear.3 mph75%30.12 "Hg10 mi
11:20 pm41 °FClear.3 mph81%30.12 "Hg10 mi
10:50 pm43 °FClear.6 mph76%30.12 "Hg10 mi
10:20 pm43 °FClear.5 mph71%30.12 "Hg10 mi
9:50 pm45 °FClear.7 mph66%30.12 "Hg10 mi
9:20 pm45 °FClear.6 mph66%30.12 "Hg10 mi
8:50 pm45 °FClear.8 mph66%30.12 "Hg10 mi
8:20 pm45 °FClear.5 mph66%30.12 "Hg10 mi
7:50 pm45 °FClear.6 mph66%30.15 "Hg10 mi
7:20 pm45 °FClear.6 mph66%30.15 "Hg10 mi
6:50 pm45 °FClear.5 mph66%30.15 "Hg10 mi
6:20 pm45 °FClear.6 mph66%30.12 "Hg10 mi
5:50 pm46 °FSunny.6 mph62%30.12 "Hg10 mi
5:20 pm46 °FSunny.6 mph62%30.15 "Hg10 mi
4:50 pm46 °FSunny.8 mph62%30.15 "Hg10 mi
4:20 pm48 °FSunny.9 mph58%30.15 "Hg10 mi
3:50 pm48 °FSunny.7 mph54%30.18 "Hg10 mi
3:20 pm50 °FPassing clouds.6 mph50%30.18 "HgN/A
Weather by CustomWeather, © 2021

See weather overview